Greenwood, MS (38930)

11:16 AM CDT on May 23, 2015 (GMT -0500)
Greenwood-Leflore | | Change Station
CLOSE
Current Station
Airport
Location: Greenwood,
Elevation: 154 ft
Nearby Weather Stations

Elev 154 ft 33.49 °N, 90.08 °W | Updated 23 minutes ago

Clear
Clear
77 °F
Feels Like 77 °F
N
7
Wind Variable Wind from SE

Today
High -- | Low -- °F
--% Chance of Precip.
Yesterday
High -- | Low -- °F
Precip. -- in
5:55 AM 7:59 PM
Waxing Crescent, 31% visible
Pressure 30.27 in
Visibility 10.0 miles
Clouds Clear
Dew Point 56 °F
Humidity 48%
Rainfall 0.00 in
Snow Depth Not available.
UV 10 out of 12
Pollen 6.10 out of 12
Air Quality Not available.
Flu Activity No Activity
METAR KGWO 231553Z AUTO 13006KT 10SM CLR 25/13 A3027 RMK AO2 SLP248 T02500133

More Conditions Fewer Conditions

Pressure 30.27 in
Visibility 10.0 miles
Clouds Clear
Dew Point 56 °F
Humidity 48%
Rainfall 0.00 in
Snow Depth Not available.
UV 10 out of 12
Pollen 6.10 out of 12
Air Quality Not available.
Flu Activity No Activity
METAR KGWO 231553Z AUTO 13006KT 10SM CLR 25/13 A3027 RMK AO2 SLP248 T02500133

More Conditions Fewer Conditions

10-Day Weather Forecast

Almanac

Astronomy

May. 23, 2015 Rise Set
Actual Time
Civil Twilight
Nautical Twilight
Astronomical Twilight
Moon
Length of Visible Light
Length of Day
Tomorrow will be .
, % of the Moon is Illuminated

Today's Extremes

State Highs State Lows

Community

WunderPhotos

Upload Photos

1,823,512 photos uploaded!

WunderBlogs® & News

Nearby

Air Quality

  Air Quality AQ Index Pollutant
Not available.

Snow Depth

Station Depth Elevation

Earthquake Activity

City Distance Mag. Time & Date
Minimum magnitude displayed is 2.5.

Coastal Water Temperatures

Place Temperature

Stations

Nearby Weather Stations

Station Location Temp. Windchill Dew Point Humidity Wind Precip. Elev Updated Type